Time;durP1;ratioP1;P1;durP2;ratioP2;P2;SDS_P1;SDS_P2;PMS_P1;PMS_P2;Temp;Humidity;BMP_temperature;BMP_pressure;BME280_temperature;BME280_humidity;BME280_pressure;Samples;Min_cycle;Max_cycle;Signal;HPM_P1;HPM_P2
2022/03/09 00:01:19;;;;;;;25.77;13.97;;;0.40;99.90;;;;;;5068353;28;20224;-85
2022/03/09 00:03:46;;;;;;;25.67;13.53;;;0.20;99.90;;;;;;5079956;28;20200;-85
2022/03/09 00:06:13;;;;;;;29.37;13.73;;;0.10;99.90;;;;;;5088184;28;20275;-85
2022/03/09 00:08:40;;;;;;;26.77;14.30;;;0.10;99.90;;;;;;5080204;28;20235;-86
2022/03/09 00:11:07;;;;;;;26.57;13.93;;;0.00;99.90;;;;;;5087336;28;20649;-85
2022/03/09 00:13:34;;;;;;;24.33;14.03;;;0.00;99.90;;;;;;5096709;28;20609;-85
2022/03/09 00:16:00;;;;;;;28.60;13.37;;;0.00;99.90;;;;;;5097057;28;20702;-85
2022/03/09 00:18:29;;;;;;;26.53;14.57;;;-0.10;99.90;;;;;;5071427;28;20562;-84
2022/03/09 00:20:57;;;;;;;27.10;14.03;;;-0.10;99.90;;;;;;5092260;28;20257;-85
2022/03/09 00:23:24;;;;;;;26.17;14.80;;;-0.10;99.90;;;;;;5095749;28;20203;-86
2022/03/09 00:25:51;;;;;;;26.50;14.83;;;-0.10;99.90;;;;;;5073620;28;20211;-86
2022/03/09 00:28:18;;;;;;;26.93;15.63;;;-0.10;99.90;;;;;;5093287;28;20199;-86
2022/03/09 00:30:45;;;;;;;29.23;15.30;;;-0.20;99.90;;;;;;5088735;28;20274;-86
2022/03/09 00:33:12;;;;;;;29.30;15.47;;;-0.20;99.90;;;;;;5093381;28;20231;-85
2022/03/09 00:35:38;;;;;;;33.17;15.83;;;-0.20;99.90;;;;;;5072571;28;20330;-85
2022/03/09 00:38:07;;;;;;;28.57;14.77;;;-0.20;99.90;;;;;;5081650;28;20199;-84
2022/03/09 00:40:34;;;;;;;27.47;15.27;;;-0.30;99.90;;;;;;5075341;28;20211;-85
2022/03/09 00:43:02;;;;;;;28.00;14.77;;;-0.30;99.90;;;;;;5079403;28;20301;-86
2022/03/09 00:45:29;;;;;;;27.77;15.20;;;-0.30;99.90;;;;;;5089929;28;20252;-88
2022/03/09 00:47:56;;;;;;;29.57;14.60;;;-0.30;99.90;;;;;;5099602;28;20236;-86
2022/03/09 00:50:23;;;;;;;35.60;15.83;;;-0.30;99.90;;;;;;5093158;28;20210;-85
2022/03/09 00:52:50;;;;;;;27.27;14.60;;;-0.40;99.90;;;;;;5072015;28;20192;-86
2022/03/09 00:55:16;;;;;;;23.67;13.93;;;-0.40;99.90;;;;;;5081192;28;20333;-86
2022/03/09 00:57:44;;;;;;;26.20;14.47;;;-0.40;99.90;;;;;;5076110;28;20200;-86
2022/03/09 01:00:11;;;;;;;29.87;14.97;;;-0.40;99.90;;;;;;5078882;28;20231;-89
2022/03/09 01:02:43;;;;;;;29.93;15.43;;;-0.40;99.90;;;;;;5078633;28;20550;-86
2022/03/09 01:05:11;;;;;;;31.07;15.40;;;-0.50;99.90;;;;;;5077724;28;20299;-87
2022/03/09 01:07:41;;;;;;;27.80;14.23;;;-0.50;99.90;;;;;;5066960;28;20247;-85
2022/03/09 01:10:09;;;;;;;32.33;15.60;;;-0.50;99.90;;;;;;5083490;28;20253;-86
2022/03/09 01:12:37;;;;;;;25.57;13.57;;;-0.50;99.90;;;;;;5072427;28;20204;-87
2022/03/09 01:15:05;;;;;;;27.60;13.90;;;-0.50;99.90;;;;;;5090877;28;20257;-85
2022/03/09 01:17:32;;;;;;;29.93;13.90;;;-0.60;99.90;;;;;;5077397;28;20214;-84
2022/03/09 01:19:59;;;;;;;36.60;14.87;;;-0.60;99.90;;;;;;5079059;28;20219;-85
2022/03/09 01:22:26;;;;;;;29.27;15.27;;;-0.60;99.90;;;;;;5087765;28;20192;-85
2022/03/09 01:24:53;;;;;;;26.50;14.20;;;-0.60;99.90;;;;;;5081412;28;20335;-86
2022/03/09 01:27:20;;;;;;;27.20;14.17;;;-0.70;99.90;;;;;;5061559;28;20298;-85
2022/03/09 01:29:47;;;;;;;30.43;14.00;;;-0.50;99.90;;;;;;5091680;28;20269;-87
2022/03/09 01:32:14;;;;;;;27.07;13.60;;;-0.70;99.90;;;;;;5078719;28;20234;-86
2022/03/09 01:34:41;;;;;;;27.80;14.80;;;-0.70;99.90;;;;;;5091819;28;20228;-86
2022/03/09 01:37:08;;;;;;;24.50;13.77;;;-0.80;99.90;;;;;;5075986;28;20240;-85
2022/03/09 01:39:35;;;;;;;28.87;15.57;;;-0.80;99.90;;;;;;5089700;28;20200;-86
2022/03/09 01:42:02;;;;;;;32.37;14.67;;;-0.80;99.90;;;;;;5081786;28;20224;-85
2022/03/09 01:44:29;;;;;;;27.93;14.60;;;-0.80;99.90;;;;;;5095217;28;20675;-88
2022/03/09 01:46:56;;;;;;;28.57;14.23;;;-0.90;99.90;;;;;;5092618;28;20284;-85
2022/03/09 01:49:24;;;;;;;25.17;13.43;;;-0.90;99.90;;;;;;5074891;28;20225;-85
2022/03/09 01:51:55;;;;;;;27.90;14.23;;;-0.90;99.90;;;;;;5079728;28;20253;-85
2022/03/09 01:54:22;;;;;;;29.83;14.07;;;-0.90;99.90;;;;;;5088520;28;20324;-86
2022/03/09 01:56:50;;;;;;;28.23;14.43;;;-0.90;99.90;;;;;;5098551;28;20307;-85
2022/03/09 01:59:17;;;;;;;26.93;14.43;;;-1.00;99.90;;;;;;5079229;28;20196;-86
2022/03/09 02:01:45;;;;;;;32.23;15.17;;;-1.00;99.90;;;;;;5075778;28;20267;-88
2022/03/09 02:04:13;;;;;;;29.63;14.20;;;-1.00;99.90;;;;;;5077679;28;20222;-87
2022/03/09 02:06:40;;;;;;;27.17;14.83;;;-1.00;99.90;;;;;;5087629;28;20208;-85
2022/03/09 02:11:55;;;;;;;31.10;14.70;;;-1.10;99.90;;;;;;5094944;28;20239;-85
2022/03/09 02:14:31;;;;;;;29.10;14.63;;;-1.10;99.90;;;;;;5074354;28;20239;-85
2022/03/09 02:17:06;;;;;;;33.17;15.07;;;-1.10;99.90;;;;;;5090750;28;20224;-86
2022/03/09 02:19:34;;;;;;;30.70;14.33;;;-1.10;99.90;;;;;;5094597;28;20245;-85
2022/03/09 02:22:13;;;;;;;25.90;14.23;;;-1.10;99.90;;;;;;5075697;28;21077;-86
2022/03/09 02:24:40;;;;;;;31.57;15.27;;;-1.10;99.90;;;;;;5074692;28;20245;-85
2022/03/09 02:27:07;;;;;;;26.00;14.83;;;-1.10;99.90;;;;;;5080301;28;20250;-85
2022/03/09 02:29:34;;;;;;;25.93;14.90;;;-1.20;99.90;;;;;;5100989;28;20237;-86
2022/03/09 02:32:02;;;;;;;26.50;14.17;;;-1.10;99.90;;;;;;5095623;28;20619;-86
2022/03/09 02:34:29;;;;;;;26.47;14.47;;;-1.20;99.90;;;;;;5099200;28;20339;-85
2022/03/09 02:36:57;;;;;;;26.37;14.53;;;-1.20;99.90;;;;;;5089967;28;20388;-86
2022/03/09 02:39:24;;;;;;;27.23;14.77;;;-1.20;99.90;;;;;;5076300;28;20277;-86
2022/03/09 02:41:51;;;;;;;27.03;13.83;;;-1.20;99.90;;;;;;5072421;28;20263;-87
2022/03/09 02:44:18;;;;;;;30.90;14.40;;;-1.20;99.90;;;;;;5082599;28;20291;-87
2022/03/09 02:46:45;;;;;;;28.40;14.80;;;-1.20;99.90;;;;;;5093337;28;20270;-87
2022/03/09 02:49:12;;;;;;;31.63;14.57;;;-1.20;99.90;;;;;;5083790;28;20221;-87
2022/03/09 02:51:39;;;;;;;30.17;14.27;;;-1.30;99.90;;;;;;5094583;28;20208;-87
2022/03/09 02:54:06;;;;;;;27.17;14.33;;;-1.20;99.90;;;;;;5073695;28;20243;-87
2022/03/09 02:56:33;;;;;;;25.90;13.53;;;-1.30;99.90;;;;;;5076539;28;20300;-86
2022/03/09 02:59:00;;;;;;;26.87;13.57;;;-1.30;99.90;;;;;;5100011;28;20245;-86
2022/03/09 03:01:27;;;;;;;31.87;13.87;;;-1.30;99.90;;;;;;5098404;28;20215;-86
2022/03/09 03:03:54;;;;;;;26.67;13.63;;;-1.40;99.90;;;;;;5081070;28;20200;-86
2022/03/09 03:06:21;;;;;;;29.37;13.70;;;-1.20;99.90;;;;;;5087498;28;20206;-84
2022/03/09 03:08:48;;;;;;;27.77;14.70;;;-1.30;99.90;;;;;;5078501;28;20283;-86
2022/03/09 03:11:15;;;;;;;25.27;13.50;;;-1.40;99.90;;;;;;5090530;28;20558;-86
2022/03/09 03:13:45;;;;;;;26.27;13.20;;;-1.40;99.90;;;;;;5093332;28;20217;-85
2022/03/09 03:16:13;;;;;;;33.50;15.03;;;-1.40;99.90;;;;;;5097469;28;20228;-85
2022/03/09 03:18:40;;;;;;;26.23;13.23;;;-1.40;99.90;;;;;;5088423;28;20291;-86
2022/03/09 03:21:07;;;;;;;25.70;13.20;;;-1.40;99.90;;;;;;5098616;28;20194;-87
2022/03/09 03:23:35;;;;;;;27.10;13.90;;;-1.40;99.90;;;;;;5080352;28;20216;-85
2022/03/09 03:26:04;;;;;;;28.60;13.43;;;-1.40;99.90;;;;;;5090553;28;20670;-85
2022/03/09 03:28:33;;;;;;;23.10;13.27;;;-1.50;99.90;;;;;;5083205;28;20205;-85
2022/03/09 03:31:00;;;;;;;31.07;14.03;;;-1.50;99.90;;;;;;5088730;28;20219;-86
2022/03/09 03:33:27;;;;;;;27.80;12.50;;;-1.50;99.90;;;;;;5076346;28;20703;-85
2022/03/09 03:35:54;;;;;;;26.37;12.83;;;-1.50;99.90;;;;;;5099452;28;20719;-85
2022/03/09 03:38:21;;;;;;;22.90;13.53;;;-1.50;99.90;;;;;;5106029;27;20687;-87
2022/03/09 03:40:48;;;;;;;23.93;12.87;;;-1.60;99.90;;;;;;5098892;28;20210;-87
2022/03/09 03:43:18;;;;;;;27.30;13.37;;;-1.60;99.90;;;;;;5101466;28;20326;-86
2022/03/09 03:45:44;;;;;;;29.83;14.30;;;-1.60;99.90;;;;;;5093603;28;20572;-88
2022/03/09 03:48:11;;;;;;;29.63;13.50;;;-1.60;99.90;;;;;;5109451;27;20615;-86
2022/03/09 03:50:39;;;;;;;29.97;13.97;;;-1.60;99.90;;;;;;5093453;28;20230;-86
2022/03/09 03:53:05;;;;;;;31.23;14.50;;;-1.60;99.90;;;;;;5092771;27;20229;-86
2022/03/09 03:55:32;;;;;;;27.07;12.77;;;-1.60;99.90;;;;;;5099147;27;20276;-85
2022/03/09 03:57:59;;;;;;;25.13;14.37;;;-1.70;99.90;;;;;;5102433;27;20745;-86
2022/03/09 04:00:26;;;;;;;25.90;13.57;;;-1.70;99.90;;;;;;5096636;28;20229;-85
2022/03/09 04:02:53;;;;;;;24.10;13.43;;;-1.70;99.90;;;;;;5094597;28;20211;-86
2022/03/09 04:05:21;;;;;;;28.70;12.30;;;-1.70;99.90;;;;;;5093022;28;20737;-86
2022/03/09 04:07:48;;;;;;;28.67;12.67;;;-1.80;99.90;;;;;;5087997;28;20253;-85
2022/03/09 04:10:17;;;;;;;26.93;12.90;;;-1.80;99.90;;;;;;5116862;27;20217;-84
2022/03/09 04:12:44;;;;;;;26.07;13.17;;;-1.80;99.90;;;;;;5083266;28;20673;-85
2022/03/09 04:15:11;;;;;;;25.30;13.37;;;-1.80;99.90;;;;;;5096330;28;20794;-86
2022/03/09 04:17:43;;;;;;;26.30;12.80;;;-1.90;99.90;;;;;;5092420;28;20519;-87
2022/03/09 04:20:12;;;;;;;29.00;13.10;;;-1.90;99.90;;;;;;5110218;27;20206;-87
2022/03/09 04:22:40;;;;;;;27.47;12.60;;;-1.90;99.90;;;;;;5096429;27;20289;-86
2022/03/09 04:25:07;;;;;;;26.47;12.87;;;-1.90;99.90;;;;;;5109663;27;20212;-85
2022/03/09 04:27:37;;;;;;;28.50;13.33;;;-2.00;99.90;;;;;;5099479;27;20293;-84
2022/03/09 04:30:08;;;;;;;21.60;12.13;;;-2.00;99.90;;;;;;5111643;27;20198;-86
2022/03/09 04:32:35;;;;;;;20.60;13.00;;;-2.00;99.90;;;;;;5105907;27;20229;-86
2022/03/09 04:35:04;;;;;;;28.30;13.33;;;-2.00;99.90;;;;;;5107753;27;20239;-86
2022/03/09 04:37:35;;;;;;;27.83;14.50;;;-2.00;99.90;;;;;;5082723;28;20316;-87
2022/03/09 04:40:04;;;;;;;29.93;14.20;;;-2.00;99.90;;;;;;5091723;28;20230;-87
2022/03/09 04:42:31;;;;;;;29.13;13.33;;;-2.00;99.90;;;;;;5105204;28;20209;-84
2022/03/09 04:44:58;;;;;;;26.83;12.97;;;-2.10;99.90;;;;;;5092007;28;20317;-85
2022/03/09 04:47:25;;;;;;;31.27;14.33;;;-2.10;99.90;;;;;;5097894;28;20205;-85
2022/03/09 04:49:52;;;;;;;27.83;13.70;;;-2.10;99.90;;;;;;5092314;28;20275;-87
2022/03/09 04:52:20;;;;;;;31.83;15.57;;;-2.10;99.90;;;;;;5109242;28;20310;-85
2022/03/09 04:54:47;;;;;;;23.23;13.27;;;-2.10;99.90;;;;;;5098277;28;20205;-87
2022/03/09 04:57:14;;;;;;;45.27;14.70;;;-2.20;99.90;;;;;;5120338;28;20823;-85
2022/03/09 04:59:41;;;;;;;34.20;15.13;;;-2.20;99.90;;;;;;5113962;28;20289;-84
2022/03/09 05:02:09;;;;;;;29.13;13.73;;;-2.20;99.90;;;;;;5119201;28;20224;-86
2022/03/09 05:04:36;;;;;;;31.40;14.30;;;-2.20;99.90;;;;;;5099938;28;20215;-87
2022/03/09 05:07:03;;;;;;;26.07;13.63;;;-2.20;99.90;;;;;;5096456;28;20206;-87
2022/03/09 05:09:32;;;;;;;30.80;14.60;;;-2.30;99.90;;;;;;5099613;28;20217;-85
2022/03/09 05:11:59;;;;;;;33.27;14.60;;;-2.30;99.90;;;;;;5096388;28;20211;-86
2022/03/09 05:14:27;;;;;;;29.13;13.73;;;-2.20;99.90;;;;;;5110607;28;20286;-86
2022/03/09 05:16:55;;;;;;;27.87;14.20;;;-2.30;99.90;;;;;;5111834;28;20273;-85
2022/03/09 05:19:22;;;;;;;29.97;14.30;;;-2.30;99.90;;;;;;5101195;28;20214;-84
2022/03/09 05:21:49;;;;;;;33.30;15.03;;;-2.40;99.90;;;;;;5098448;28;20214;-85
2022/03/09 05:24:36;;;;;;;31.33;15.03;;;-2.40;99.90;;;;;;5112441;27;20216;-85
2022/03/09 05:27:03;;;;;;;29.13;14.43;;;-2.40;99.90;;;;;;5119590;27;20250;-85
2022/03/09 05:29:30;;;;;;;34.33;15.43;;;-2.40;99.90;;;;;;5111163;28;20218;-86
2022/03/09 05:31:57;;;;;;;44.17;14.13;;;-2.50;99.90;;;;;;5119579;27;20240;-85
2022/03/09 05:34:24;;;;;;;28.73;13.83;;;-2.50;99.90;;;;;;5117833;27;20470;-86
2022/03/09 05:36:53;;;;;;;28.40;14.47;;;-2.50;99.90;;;;;;5105809;28;20320;-88
2022/03/09 05:39:20;;;;;;;32.17;14.07;;;-2.50;99.90;;;;;;5119365;27;20208;-84
2022/03/09 05:41:49;;;;;;;31.67;16.03;;;-2.50;99.90;;;;;;5103372;28;20210;-85
2022/03/09 05:44:22;;;;;;;35.43;14.80;;;-2.50;99.90;;;;;;5114205;27;20213;-85
2022/03/09 05:46:50;;;;;;;30.07;14.07;;;-2.50;99.90;;;;;;5121153;27;20226;-85
2022/03/09 05:49:17;;;;;;;36.03;14.90;;;-2.50;99.90;;;;;;5101297;27;20205;-86
2022/03/09 05:51:46;;;;;;;30.70;14.93;;;-2.50;99.90;;;;;;5091226;28;20204;-85
2022/03/09 05:54:13;;;;;;;34.37;15.33;;;-2.50;99.90;;;;;;5103993;27;20384;-85
2022/03/09 05:56:40;;;;;;;35.53;15.30;;;-2.60;99.90;;;;;;5101695;28;20320;-87
2022/03/09 05:59:07;;;;;;;33.37;14.47;;;-2.50;99.90;;;;;;5110780;28;20736;-85
2022/03/09 06:01:34;;;;;;;29.50;13.87;;;-2.60;99.90;;;;;;5097919;28;20745;-85
2022/03/09 06:04:02;;;;;;;33.57;15.07;;;-2.60;99.90;;;;;;5098334;27;20265;-85
2022/03/09 06:06:31;;;;;;;31.63;14.80;;;-2.60;99.90;;;;;;5111042;27;20208;-85
2022/03/09 06:08:58;;;;;;;32.27;15.63;;;-2.60;99.90;;;;;;5115712;27;20290;-84
2022/03/09 06:11:25;;;;;;;33.93;15.03;;;-2.60;99.90;;;;;;5102846;27;20274;-85
2022/03/09 06:13:52;;;;;;;35.80;15.90;;;-2.60;99.90;;;;;;5120159;27;20610;-83
2022/03/09 06:16:19;;;;;;;29.30;15.13;;;-2.60;99.90;;;;;;5115700;27;20237;-86
2022/03/09 06:18:46;;;;;;;32.23;15.67;;;-2.60;99.90;;;;;;5113488;27;20236;-86
2022/03/09 06:21:16;;;;;;;33.50;14.77;;;-2.50;99.90;;;;;;5104157;27;20509;-87
2022/03/09 06:23:43;;;;;;;32.10;15.80;;;-2.60;99.90;;;;;;5099588;28;20292;-85
2022/03/09 06:26:11;;;;;;;35.20;15.80;;;-2.60;99.90;;;;;;5097936;27;20683;-87
2022/03/09 06:28:37;;;;;;;27.67;14.90;;;-2.50;99.90;;;;;;5106285;28;20263;-86
2022/03/09 06:31:04;;;;;;;34.43;15.67;;;-2.50;99.90;;;;;;5124872;27;20233;-84
2022/03/09 06:33:31;;;;;;;34.87;15.77;;;-2.50;99.90;;;;;;5122742;27;20338;-85
2022/03/09 06:35:58;;;;;;;41.27;16.93;;;-2.50;99.90;;;;;;5104198;28;20229;-85
2022/03/09 06:38:25;;;;;;;33.83;15.33;;;-2.50;99.90;;;;;;5120547;28;20198;-85
2022/03/09 06:40:55;;;;;;;29.90;14.87;;;-2.40;99.90;;;;;;5121378;27;20600;-85
2022/03/09 06:43:22;;;;;;;36.93;15.83;;;-2.30;99.90;;;;;;5116022;27;20273;-86
2022/03/09 06:45:50;;;;;;;29.63;15.07;;;-2.30;99.90;;;;;;5104422;28;20677;-86
2022/03/09 06:48:17;;;;;;;31.83;17.07;;;-2.30;99.90;;;;;;5120787;27;20262;-87
2022/03/09 06:50:44;;;;;;;36.53;17.37;;;-2.30;99.90;;;;;;5102822;28;20205;-84
2022/03/09 06:53:14;;;;;;;34.77;15.67;;;-2.20;99.90;;;;;;5096177;27;20215;-85
2022/03/09 06:55:41;;;;;;;32.00;15.30;;;-2.20;99.90;;;;;;5102184;27;20645;-83
2022/03/09 06:58:11;;;;;;;42.73;18.20;;;-2.10;99.90;;;;;;5100882;27;20241;-86
2022/03/09 07:00:38;;;;;;;60.63;23.33;;;-1.90;99.90;;;;;;5104645;27;20229;-81
2022/03/09 07:03:05;;;;;;;51.20;24.03;;;-1.00;99.90;;;;;;5108821;27;20243;-86
2022/03/09 07:05:36;;;;;;;44.17;18.20;;;0.00;99.90;;;;;;5091873;28;20291;-82
2022/03/09 07:08:03;;;;;;;30.23;15.07;;;1.30;99.90;;;;;;5112638;27;20271;-84
2022/03/09 07:10:30;;;;;;;31.23;13.50;;;2.60;99.90;;;;;;5097165;28;20240;-84
2022/03/09 07:12:57;;;;;;;27.20;13.73;;;3.70;99.90;;;;;;5100796;27;20207;-84
2022/03/09 07:15:29;;;;;;;21.73;12.53;;;4.70;99.90;;;;;;5105610;27;20247;-82
2022/03/09 07:17:56;;;;;;;25.70;12.63;;;5.70;99.90;;;;;;5111474;27;20654;-83
2022/03/09 07:20:23;;;;;;;22.53;12.90;;;6.50;99.90;;;;;;5098489;27;20217;-82
2022/03/09 07:22:50;;;;;;;29.40;12.73;;;7.30;99.90;;;;;;5112038;27;20310;-83
2022/03/09 07:25:16;;;;;;;20.60;12.43;;;8.10;99.90;;;;;;5097291;27;20690;-82
2022/03/09 07:27:43;;;;;;;24.60;12.57;;;8.70;99.90;;;;;;5094418;28;20213;-84
2022/03/09 07:30:11;;;;;;;19.60;11.70;;;9.30;99.90;;;;;;5093012;27;20315;-83
2022/03/09 07:32:38;;;;;;;21.73;11.37;;;;;;;;;;5107594;27;20266;-84
2022/03/09 07:35:21;;;;;;;23.33;11.83;;;10.30;99.90;;;;;;5093660;27;20249;-84
2022/03/09 07:37:52;;;;;;;21.30;12.30;;;10.80;99.90;;;;;;5101516;27;20320;-83
2022/03/09 07:40:20;;;;;;;18.80;10.90;;;11.10;99.90;;;;;;5089508;27;20305;-82
2022/03/09 07:42:48;;;;;;;19.13;11.43;;;11.40;99.90;;;;;;5103090;27;20528;-82
2022/03/09 07:45:16;;;;;;;19.13;10.97;;;11.30;99.90;;;;;;5106143;27;20276;-84
2022/03/09 07:47:43;;;;;;;17.30;10.63;;;12.10;99.90;;;;;;5088141;28;20211;-85
2022/03/09 07:50:10;;;;;;;16.00;10.30;;;12.00;99.90;;;;;;5108584;27;20302;-83
2022/03/09 07:52:37;;;;;;;16.70;9.77;;;11.80;99.90;;;;;;5090075;28;20228;-82
2022/03/09 07:55:05;;;;;;;16.07;10.00;;;10.90;99.90;;;;;;5094419;27;20715;-83
2022/03/09 07:57:32;;;;;;;16.43;9.47;;;10.10;99.90;;;;;;5094027;28;20254;-84
2022/03/09 08:00:00;;;;;;;16.20;9.97;;;9.30;99.90;;;;;;5114302;27;20201;-83
2022/03/09 08:02:26;;;;;;;19.50;8.80;;;8.70;99.90;;;;;;5096698;28;20210;-84
2022/03/09 08:04:53;;;;;;;15.07;8.20;;;8.00;99.90;;;;;;5106592;27;20204;-82
2022/03/09 08:07:20;;;;;;;16.50;9.17;;;7.40;99.90;;;;;;5090276;28;20237;-84
2022/03/09 08:09:47;;;;;;;14.57;8.77;;;6.90;99.90;;;;;;5107580;28;20643;-82
2022/03/09 08:12:14;;;;;;;16.07;9.10;;;6.50;99.90;;;;;;5107927;27;20243;-82
2022/03/09 08:14:40;;;;;;;12.90;8.03;;;6.00;99.90;;;;;;5111519;27;20657;-82
2022/03/09 08:17:09;;;;;;;13.60;8.20;;;5.70;99.90;;;;;;5094615;27;20233;-82
2022/03/09 08:19:36;;;;;;;18.07;9.27;;;5.50;99.90;;;;;;5110681;27;20211;-84
2022/03/09 08:22:03;;;;;;;15.63;8.70;;;5.20;99.90;;;;;;5105431;27;20193;-84
2022/03/09 08:24:32;;;;;;;14.40;7.93;;;5.10;99.90;;;;;;5099642;27;20245;-84
2022/03/09 08:27:02;;;;;;;19.63;9.27;;;4.90;99.90;;;;;;5101722;28;20209;-84
2022/03/09 08:29:29;;;;;;;14.17;8.83;;;4.80;99.90;;;;;;5108586;27;20201;-82
2022/03/09 08:31:55;;;;;;;16.80;8.77;;;4.70;99.90;;;;;;5106361;27;20316;-84
2022/03/09 08:34:22;;;;;;;14.93;8.17;;;4.60;99.90;;;;;;5110071;28;20207;-84
2022/03/09 08:36:49;;;;;;;16.30;8.83;;;4.60;99.90;;;;;;5105067;28;20231;-82
2022/03/09 08:39:16;;;;;;;14.07;8.57;;;4.50;99.90;;;;;;5107852;28;20289;-82
2022/03/09 08:41:44;;;;;;;13.47;8.37;;;4.50;99.90;;;;;;5088558;28;20297;-83
2022/03/09 08:44:31;;;;;;;15.30;7.97;;;4.40;99.90;;;;;;5089245;28;20558;-84
2022/03/09 08:46:59;;;;;;;14.33;8.30;;;4.60;99.90;;;;;;5107230;28;20217;-85
2022/03/09 08:49:27;;;;;;;16.00;8.57;;;4.40;99.90;;;;;;5092792;28;20563;-83
2022/03/09 08:51:54;;;;;;;18.37;7.73;;;4.50;99.90;;;;;;5106975;28;20298;-84
2022/03/09 08:54:21;;;;;;;15.07;8.73;;;4.50;99.90;;;;;;5106670;28;20235;-84
2022/03/09 08:56:48;;;;;;;14.30;8.30;;;4.60;99.90;;;;;;5111328;28;20232;-84
2022/03/09 08:59:15;;;;;;;14.60;8.90;;;4.70;99.90;;;;;;5113452;27;20307;-83
2022/03/09 09:01:42;;;;;;;15.67;7.67;;;4.80;99.90;;;;;;5110825;27;20324;-84
2022/03/09 09:04:14;;;;;;;15.13;8.10;;;4.80;99.90;;;;;;5106348;27;20684;-84
2022/03/09 09:06:41;;;;;;;14.70;7.97;;;4.80;99.90;;;;;;5111464;27;20638;-83
2022/03/09 09:09:08;;;;;;;14.07;7.90;;;5.00;99.90;;;;;;5114653;27;20562;-82
2022/03/09 09:11:35;;;;;;;14.27;8.40;;;5.30;99.90;;;;;;5115329;27;20212;-85
2022/03/09 09:14:02;;;;;;;15.40;7.93;;;5.40;99.90;;;;;;5104470;28;20203;-84
2022/03/09 09:16:30;;;;;;;15.60;8.07;;;5.80;99.90;;;;;;5099508;28;20226;-84
2022/03/09 09:18:57;;;;;;;15.03;8.00;;;6.30;99.90;;;;;;5099459;28;20207;-85
2022/03/09 09:21:24;;;;;;;13.50;8.30;;;6.80;99.90;;;;;;5112778;27;20219;-86
2022/03/09 09:23:51;;;;;;;16.93;8.43;;;7.30;99.90;;;;;;5115332;27;20228;-85
2022/03/09 09:26:18;;;;;;;16.83;8.27;;;7.70;99.90;;;;;;5119846;27;20691;-85
2022/03/09 09:29:06;;;;;;;11.13;8.00;;;8.10;99.90;;;;;;5104916;28;20194;-85
2022/03/09 09:31:33;;;;;;;13.80;8.60;;;8.40;99.90;;;;;;5108631;28;20226;-85
2022/03/09 09:34:02;;;;;;;15.87;8.77;;;8.80;99.90;;;;;;5117728;27;20199;-86
2022/03/09 09:36:29;;;;;;;16.03;8.23;;;9.10;99.90;;;;;;5110604;27;20271;-86
2022/03/09 09:38:56;;;;;;;13.03;7.77;;;9.30;99.90;;;;;;5097862;28;20207;-86
2022/03/09 09:41:26;;;;;;;13.67;7.80;;;9.50;99.90;;;;;;5117174;27;20658;-87
2022/03/09 09:43:54;;;;;;;13.00;8.93;;;9.80;99.90;;;;;;5109721;27;20207;-87
2022/03/09 09:46:21;;;;;;;14.33;9.03;;;10.00;99.90;;;;;;5106653;27;20216;-86
2022/03/09 09:48:49;;;;;;;11.17;7.73;;;10.10;99.90;;;;;;5092922;28;20219;-85
2022/03/09 09:51:17;;;;;;;13.80;8.37;;;10.20;99.90;;;;;;5091538;28;20205;-86
2022/03/09 09:53:46;;;;;;;14.70;8.43;;;10.40;99.90;;;;;;5096367;28;20376;-87
2022/03/09 09:56:13;;;;;;;14.00;8.37;;;10.50;99.80;;;;;;5095926;27;20214;-85
2022/03/09 09:58:44;;;;;;;13.97;8.63;;;10.60;99.80;;;;;;5097981;28;20730;-85
2022/03/09 10:01:11;;;;;;;15.17;8.53;;;10.70;99.60;;;;;;5115040;27;20299;-86
2022/03/09 10:03:39;;;;;;;12.27;9.07;;;10.70;99.40;;;;;;5098472;28;20606;-85
2022/03/09 10:06:06;;;;;;;14.43;9.13;;;10.70;98.90;;;;;;5113981;27;20230;-86
2022/03/09 10:08:35;;;;;;;14.73;8.27;;;10.50;97.30;;;;;;5094182;28;20782;-85
2022/03/09 10:11:03;;;;;;;13.97;8.23;;;10.50;97.10;;;;;;5114326;27;20218;-86
2022/03/09 10:13:32;;;;;;;14.33;8.03;;;10.30;96.50;;;;;;5109260;28;20201;-85
2022/03/09 10:16:10;;;;;;;13.30;8.67;;;10.20;96.20;;;;;;5097440;27;20276;-85
2022/03/09 10:18:38;;;;;;;14.57;8.43;;;10.00;95.30;;;;;;5115984;27;20313;-85
2022/03/09 10:21:17;;;;;;;15.77;8.53;;;9.90;95.60;;;;;;5101337;28;20198;-85
2022/03/09 10:24:01;;;;;;;12.00;8.30;;;9.80;95.20;;;;;;5090201;28;20207;-85
2022/03/09 10:26:45;;;;;;;14.40;9.37;;;9.60;95.30;;;;;;5096852;28;20287;-86
2022/03/09 10:29:18;;;;;;;15.97;8.50;;;9.50;95.30;;;;;;5101509;27;20254;-86
2022/03/09 10:31:50;;;;;;;15.20;8.07;;;9.40;95.60;;;;;;5107252;27;20540;-87
2022/03/09 10:34:24;;;;;;;16.23;8.90;;;9.30;95.40;;;;;;5112812;27;20215;-86
2022/03/09 10:37:06;;;;;;;14.53;8.50;;;9.30;95.40;;;;;;5111578;27;20250;-84
2022/03/09 10:39:37;;;;;;;14.37;8.23;;;9.30;95.30;;;;;;5102149;27;20199;-86
2022/03/09 10:42:23;;;;;;;12.60;8.30;;;9.10;95.60;;;;;;5097189;27;20199;-85
2022/03/09 10:44:51;;;;;;;13.67;8.70;;;9.10;95.60;;;;;;5091829;28;20206;-85
2022/03/09 10:47:36;;;;;;;17.43;8.90;;;9.00;96.10;;;;;;5094402;28;20264;-84
2022/03/09 10:50:19;;;;;;;15.47;8.83;;;9.10;95.90;;;;;;5114408;27;20292;-85
2022/03/09 10:52:51;;;;;;;13.90;8.67;;;9.10;95.60;;;;;;5115564;27;20625;-85
2022/03/09 10:55:35;;;;;;;14.43;8.07;;;9.20;96.20;;;;;;5097944;27;20289;-85
2022/03/09 10:58:09;;;;;;;15.30;9.03;;;9.30;96.20;;;;;;5100810;27;20229;-86
2022/03/09 11:00:37;;;;;;;15.60;8.83;;;9.20;96.40;;;;;;5102012;28;20222;-85
2022/03/09 11:03:08;;;;;;;16.70;9.53;;;9.50;96.40;;;;;;5101691;27;20210;-86
2022/03/09 11:05:36;;;;;;;15.87;9.30;;;9.60;96.10;;;;;;5099396;28;20217;-84
2022/03/09 11:08:04;;;;;;;14.03;8.63;;;9.70;96.00;;;;;;5101633;27;20215;-85
2022/03/09 11:10:32;;;;;;;14.73;10.00;;;9.80;95.80;;;;;;5120941;27;20209;-84
2022/03/09 11:13:00;;;;;;;16.57;9.10;;;10.00;95.70;;;;;;5100073;27;20206;-85
2022/03/09 11:15:28;;;;;;;18.30;10.03;;;10.00;95.60;;;;;;5107154;27;20222;-86
2022/03/09 11:17:56;;;;;;;14.77;9.30;;;10.30;95.40;;;;;;5094676;28;20234;-85
2022/03/09 11:20:25;;;;;;;19.10;10.10;;;10.40;94.90;;;;;;5098197;28;20256;-86
2022/03/09 11:22:52;;;;;;;15.10;8.77;;;10.50;94.70;;;;;;5115468;27;20258;-86
2022/03/09 11:25:23;;;;;;;17.13;9.47;;;10.60;94.50;;;;;;5114821;27;20202;-85
2022/03/09 11:27:53;;;;;;;21.63;10.47;;;10.70;94.50;;;;;;5104497;28;20261;-84
2022/03/09 11:30:33;;;;;;;17.40;10.07;;;10.80;94.40;;;;;;5094203;28;20621;-84
2022/03/09 11:33:01;;;;;;;18.10;9.90;;;11.00;93.70;;;;;;5109364;27;20299;-85
2022/03/09 11:35:35;;;;;;;17.00;9.90;;;11.10;93.70;;;;;;5097716;28;20214;-86
2022/03/09 11:38:23;;;;;;;17.53;9.87;;;11.20;93.70;;;;;;5102849;27;20232;-85
2022/03/09 11:41:22;;;;;;;20.87;11.23;;;11.30;93.20;;;;;;5110134;27;20201;-86
2022/03/09 11:43:53;;;;;;;19.93;11.03;;;11.40;92.80;;;;;;5119015;27;20213;-85
2022/03/09 11:46:20;;;;;;;16.37;10.27;;;11.60;92.40;;;;;;5107072;27;20212;-85
2022/03/09 11:48:59;;;;;;;17.10;10.27;;;11.60;91.80;;;;;;5114442;27;20496;-85
2022/03/09 11:51:28;;;;;;;21.90;11.00;;;11.70;91.40;;;;;;5124641;27;20206;-84
2022/03/09 11:53:59;;;;;;;20.57;11.13;;;11.90;91.80;;;;;;5094691;28;20301;-85
2022/03/09 11:56:32;;;;;;;17.63;10.90;;;12.00;91.60;;;;;;5084086;28;20210;-85
2022/03/09 11:59:10;;;;;;;17.43;10.40;;;12.10;91.80;;;;;;5082209;27;20230;-85
2022/03/09 12:01:56;;;;;;;23.30;11.00;;;12.00;91.70;;;;;;5094647;28;20271;-84
2022/03/09 12:04:54;;;;;;;21.83;11.10;;;12.40;91.70;;;;;;5105248;28;20244;-84
2022/03/09 12:07:30;;;;;;;20.20;11.27;;;12.50;91.00;;;;;;5109437;27;20278;-85
2022/03/09 12:09:58;;;;;;;20.57;12.20;;;12.60;90.40;;;;;;5088261;28;20213;-82
2022/03/09 12:12:33;;;;;;;20.63;11.70;;;12.60;90.30;;;;;;5104751;28;20740;-82
2022/03/09 12:15:05;;;;;;;18.43;11.30;;;12.70;90.10;;;;;;5106213;28;20240;-85
2022/03/09 12:17:34;;;;;;;23.47;11.70;;;12.80;90.30;;;;;;5094106;28;20236;-86
2022/03/09 12:20:23;;;;;;;20.30;11.50;;;12.80;90.10;;;;;;5096540;27;20208;-83
2022/03/09 12:22:56;;;;;;;19.93;11.67;;;12.90;88.20;;;;;;5106075;27;20301;-84
2022/03/09 12:25:43;;;;;;;18.17;11.37;;;12.90;87.70;;;;;;5084064;28;20215;-84
2022/03/09 12:28:25;;;;;;;19.47;10.83;;;13.10;87.70;;;;;;5106036;28;20219;-84
2022/03/09 12:30:57;;;;;;;21.13;11.87;;;13.20;87.00;;;;;;5110973;27;20219;-86
2022/03/09 12:33:27;;;;;;;20.70;11.30;;;13.30;86.40;;;;;;5107835;27;20351;-84
2022/03/09 12:36:05;;;;;;;22.03;11.60;;;13.40;86.20;;;;;;5118109;27;20199;-84
2022/03/09 12:38:54;;;;;;;19.50;11.73;;;13.50;84.40;;;;;;5111670;28;20223;-85
2022/03/09 12:41:39;;;;;;;18.77;11.10;;;13.50;84.60;;;;;;5109103;28;20251;-84
2022/03/09 12:44:15;;;;;;;22.70;12.63;;;13.50;84.20;;;;;;5097068;28;20569;-84
2022/03/09 12:46:45;;;;;;;22.87;12.40;;;13.60;83.50;;;;;;5108690;28;20225;-85